Weather at Vairengte Helipad

Public forecast

Using degrees Celsius for public forecast. Weather courtesy of forecast.io.

Closest aviation weather report (METAR) to Vairengte Helipad

Report is more than 6 hours old.

Closest report is Lengpui Airport, 39.0 nm (72.3 km) S. Retrieved 2021/01/21 08:00 UTC (7 hours ago):

VELP 210800Z 20008KT 3000 HZ SCT020 25/11 Q1012 NOSIG

Closest aviation forecast (TAF) to Vairengte Helipad

Closest forecast is Silchar Airport, 28.8 nm (53.3 km) NNE. Retrieved 2021/01/21 12:30 UTC (2 hours ago):

TAF VEKU 210930Z 2112/2124 08005KT 2000 BR SCT030 BECMG 2114/2118 VRB02KT 1500 BR BECMG 2119/2124 0800 FG